sensor_id;sensor_type;location;lat;lon;timestamp;P1;durP1;ratioP1;P2;durP2;ratioP2
12968;SDS011;6549;53.128;8.182;2022-10-16T00:01:55;6.53;;;3.80;;
12968;SDS011;6549;53.128;8.182;2022-10-16T00:04:55;7.20;;;3.60;;
12968;SDS011;6549;53.128;8.182;2022-10-16T00:07:55;7.25;;;3.42;;
12968;SDS011;6549;53.128;8.182;2022-10-16T00:11:03;9.73;;;3.72;;
12968;SDS011;6549;53.128;8.182;2022-10-16T00:14:07;6.07;;;3.67;;
12968;SDS011;6549;53.128;8.182;2022-10-16T00:17:12;5.68;;;3.35;;
12968;SDS011;6549;53.128;8.182;2022-10-16T00:20:12;9.18;;;3.58;;
12968;SDS011;6549;53.128;8.182;2022-10-16T00:23:13;6.05;;;3.05;;
12968;SDS011;6549;53.128;8.182;2022-10-16T00:26:14;7.93;;;3.45;;
12968;SDS011;6549;53.128;8.182;2022-10-16T00:29:15;5.15;;;3.10;;
12968;SDS011;6549;53.128;8.182;2022-10-16T00:32:16;9.45;;;3.25;;
12968;SDS011;6549;53.128;8.182;2022-10-16T00:35:17;5.72;;;3.45;;
12968;SDS011;6549;53.128;8.182;2022-10-16T00:38:17;6.90;;;3.13;;
12968;SDS011;6549;53.128;8.182;2022-10-16T00:41:18;6.18;;;3.05;;
12968;SDS011;6549;53.128;8.182;2022-10-16T00:47:56;6.32;;;3.10;;
12968;SDS011;6549;53.128;8.182;2022-10-16T00:50:57;4.57;;;2.80;;
12968;SDS011;6549;53.128;8.182;2022-10-16T00:53:58;8.05;;;3.10;;
12968;SDS011;6549;53.128;8.182;2022-10-16T00:57:00;4.70;;;2.83;;
12968;SDS011;6549;53.128;8.182;2022-10-16T01:00:04;5.10;;;3.08;;
12968;SDS011;6549;53.128;8.182;2022-10-16T01:03:22;9.73;;;3.10;;
12968;SDS011;6549;53.128;8.182;2022-10-16T01:06:26;5.65;;;2.83;;
12968;SDS011;6549;53.128;8.182;2022-10-16T01:17:04;7.57;;;3.13;;
12968;SDS011;6549;53.128;8.182;2022-10-16T01:23:47;8.80;;;2.80;;
12968;SDS011;6549;53.128;8.182;2022-10-16T01:27:03;9.77;;;2.90;;
12968;SDS011;6549;53.128;8.182;2022-10-16T01:30:23;5.63;;;3.03;;
12968;SDS011;6549;53.128;8.182;2022-10-16T01:33:42;8.13;;;3.08;;
12968;SDS011;6549;53.128;8.182;2022-10-16T01:36:47;4.93;;;2.53;;
12968;SDS011;6549;53.128;8.182;2022-10-16T01:39:53;6.07;;;2.83;;
12968;SDS011;6549;53.128;8.182;2022-10-16T01:42:59;4.50;;;2.60;;
12968;SDS011;6549;53.128;8.182;2022-10-16T01:46:07;7.90;;;2.67;;
12968;SDS011;6549;53.128;8.182;2022-10-16T01:49:10;4.72;;;3.03;;
12968;SDS011;6549;53.128;8.182;2022-10-16T01:52:13;7.55;;;3.00;;
12968;SDS011;6549;53.128;8.182;2022-10-16T01:55:19;5.22;;;2.72;;
12968;SDS011;6549;53.128;8.182;2022-10-16T01:58:31;7.82;;;2.80;;
12968;SDS011;6549;53.128;8.182;2022-10-16T02:01:37;3.83;;;2.70;;
12968;SDS011;6549;53.128;8.182;2022-10-16T02:04:42;5.45;;;2.90;;
12968;SDS011;6549;53.128;8.182;2022-10-16T02:07:46;7.22;;;2.88;;
12968;SDS011;6549;53.128;8.182;2022-10-16T02:10:47;7.10;;;2.65;;
12968;SDS011;6549;53.128;8.182;2022-10-16T02:13:48;5.88;;;2.55;;
12968;SDS011;6549;53.128;8.182;2022-10-16T02:16:55;6.82;;;2.95;;
12968;SDS011;6549;53.128;8.182;2022-10-16T02:19:55;4.22;;;2.58;;
12968;SDS011;6549;53.128;8.182;2022-10-16T02:22:58;3.80;;;2.30;;
12968;SDS011;6549;53.128;8.182;2022-10-16T02:25:59;7.03;;;2.50;;
12968;SDS011;6549;53.128;8.182;2022-10-16T02:29:06;4.72;;;2.30;;
12968;SDS011;6549;53.128;8.182;2022-10-16T02:32:10;6.75;;;2.28;;
12968;SDS011;6549;53.128;8.182;2022-10-16T02:35:15;4.43;;;2.47;;
12968;SDS011;6549;53.128;8.182;2022-10-16T02:38:18;6.70;;;2.80;;
12968;SDS011;6549;53.128;8.182;2022-10-16T02:44:21;5.70;;;2.38;;
12968;SDS011;6549;53.128;8.182;2022-10-16T02:47:22;4.80;;;2.30;;
12968;SDS011;6549;53.128;8.182;2022-10-16T02:50:22;4.03;;;2.03;;
12968;SDS011;6549;53.128;8.182;2022-10-16T02:53:24;4.80;;;2.30;;
12968;SDS011;6549;53.128;8.182;2022-10-16T02:56:24;7.15;;;2.75;;
12968;SDS011;6549;53.128;8.182;2022-10-16T02:59:24;5.28;;;2.65;;
12968;SDS011;6549;53.128;8.182;2022-10-16T03:02:25;4.47;;;2.63;;
12968;SDS011;6549;53.128;8.182;2022-10-16T03:05:25;5.88;;;2.33;;
12968;SDS011;6549;53.128;8.182;2022-10-16T03:08:26;4.20;;;2.42;;
12968;SDS011;6549;53.128;8.182;2022-10-16T03:11:26;6.43;;;2.53;;
12968;SDS011;6549;53.128;8.182;2022-10-16T03:14:28;5.78;;;2.42;;
12968;SDS011;6549;53.128;8.182;2022-10-16T03:17:28;4.68;;;2.33;;
12968;SDS011;6549;53.128;8.182;2022-10-16T03:20:28;6.07;;;2.30;;
12968;SDS011;6549;53.128;8.182;2022-10-16T03:23:29;4.47;;;2.70;;
12968;SDS011;6549;53.128;8.182;2022-10-16T03:26:29;4.70;;;2.53;;
12968;SDS011;6549;53.128;8.182;2022-10-16T03:29:29;6.32;;;2.80;;
12968;SDS011;6549;53.128;8.182;2022-10-16T03:32:30;5.15;;;2.55;;
12968;SDS011;6549;53.128;8.182;2022-10-16T03:35:31;6.05;;;2.92;;
12968;SDS011;6549;53.128;8.182;2022-10-16T03:38:32;5.63;;;2.88;;
12968;SDS011;6549;53.128;8.182;2022-10-16T03:41:33;6.03;;;3.10;;
12968;SDS011;6549;53.128;8.182;2022-10-16T03:44:33;7.47;;;2.88;;
12968;SDS011;6549;53.128;8.182;2022-10-16T03:47:33;5.80;;;3.10;;
12968;SDS011;6549;53.128;8.182;2022-10-16T03:50:34;10.95;;;3.65;;
12968;SDS011;6549;53.128;8.182;2022-10-16T03:53:34;5.65;;;3.30;;
12968;SDS011;6549;53.128;8.182;2022-10-16T03:56:34;6.68;;;3.40;;
12968;SDS011;6549;53.128;8.182;2022-10-16T03:59:35;8.15;;;3.97;;
12968;SDS011;6549;53.128;8.182;2022-10-16T04:02:35;7.20;;;3.83;;
12968;SDS011;6549;53.128;8.182;2022-10-16T04:05:35;7.50;;;4.15;;
12968;SDS011;6549;53.128;8.182;2022-10-16T04:08:36;9.57;;;4.07;;
12968;SDS011;6549;53.128;8.182;2022-10-16T04:11:36;7.25;;;4.53;;
12968;SDS011;6549;53.128;8.182;2022-10-16T04:14:37;9.10;;;3.97;;
12968;SDS011;6549;53.128;8.182;2022-10-16T04:17:37;9.75;;;4.20;;
12968;SDS011;6549;53.128;8.182;2022-10-16T04:20:37;9.93;;;4.40;;
12968;SDS011;6549;53.128;8.182;2022-10-16T04:23:38;7.40;;;4.53;;
12968;SDS011;6549;53.128;8.182;2022-10-16T04:26:38;7.78;;;4.47;;
12968;SDS011;6549;53.128;8.182;2022-10-16T04:29:38;7.78;;;4.80;;
12968;SDS011;6549;53.128;8.182;2022-10-16T04:32:39;9.55;;;4.93;;
12968;SDS011;6549;53.128;8.182;2022-10-16T04:35:40;7.63;;;4.80;;
12968;SDS011;6549;53.128;8.182;2022-10-16T04:38:40;11.77;;;5.97;;
12968;SDS011;6549;53.128;8.182;2022-10-16T04:41:40;9.98;;;6.00;;
12968;SDS011;6549;53.128;8.182;2022-10-16T04:44:41;7.07;;;5.32;;
12968;SDS011;6549;53.128;8.182;2022-10-16T04:47:41;10.00;;;6.15;;
12968;SDS011;6549;53.128;8.182;2022-10-16T04:50:41;7.32;;;4.95;;
12968;SDS011;6549;53.128;8.182;2022-10-16T04:53:42;9.68;;;5.72;;
12968;SDS011;6549;53.128;8.182;2022-10-16T04:56:42;9.25;;;6.32;;
12968;SDS011;6549;53.128;8.182;2022-10-16T04:59:46;11.95;;;6.35;;
12968;SDS011;6549;53.128;8.182;2022-10-16T05:02:47;14.63;;;7.45;;
12968;SDS011;6549;53.128;8.182;2022-10-16T05:05:47;10.73;;;7.80;;
12968;SDS011;6549;53.128;8.182;2022-10-16T05:08:47;16.25;;;8.35;;
12968;SDS011;6549;53.128;8.182;2022-10-16T05:11:48;10.50;;;7.50;;
12968;SDS011;6549;53.128;8.182;2022-10-16T05:14:48;12.38;;;8.05;;
12968;SDS011;6549;53.128;8.182;2022-10-16T05:17:51;12.50;;;8.23;;
12968;SDS011;6549;53.128;8.182;2022-10-16T05:20:52;15.65;;;8.13;;
12968;SDS011;6549;53.128;8.182;2022-10-16T05:23:53;11.95;;;8.00;;
12968;SDS011;6549;53.128;8.182;2022-10-16T05:26:54;11.63;;;8.02;;
12968;SDS011;6549;53.128;8.182;2022-10-16T05:29:54;12.70;;;8.23;;
12968;SDS011;6549;53.128;8.182;2022-10-16T05:32:55;13.43;;;7.90;;
12968;SDS011;6549;53.128;8.182;2022-10-16T05:35:55;12.48;;;7.90;;
12968;SDS011;6549;53.128;8.182;2022-10-16T05:38:55;11.95;;;8.25;;
12968;SDS011;6549;53.128;8.182;2022-10-16T05:41:56;13.13;;;8.60;;
12968;SDS011;6549;53.128;8.182;2022-10-16T05:44:56;14.13;;;8.00;;
12968;SDS011;6549;53.128;8.182;2022-10-16T05:47:56;16.83;;;7.75;;
12968;SDS011;6549;53.128;8.182;2022-10-16T05:51:01;13.88;;;8.00;;
12968;SDS011;6549;53.128;8.182;2022-10-16T05:54:03;12.30;;;7.60;;
12968;SDS011;6549;53.128;8.182;2022-10-16T05:57:03;10.05;;;7.13;;
12968;SDS011;6549;53.128;8.182;2022-10-16T06:00:05;14.00;;;8.57;;
12968;SDS011;6549;53.128;8.182;2022-10-16T06:03:06;10.40;;;7.53;;
12968;SDS011;6549;53.128;8.182;2022-10-16T06:06:07;11.23;;;7.72;;
12968;SDS011;6549;53.128;8.182;2022-10-16T06:09:11;13.00;;;8.30;;
12968;SDS011;6549;53.128;8.182;2022-10-16T06:12:11;12.25;;;7.43;;
12968;SDS011;6549;53.128;8.182;2022-10-16T06:15:12;13.48;;;8.18;;
12968;SDS011;6549;53.128;8.182;2022-10-16T06:18:12;10.48;;;7.25;;
12968;SDS011;6549;53.128;8.182;2022-10-16T06:21:16;11.05;;;8.00;;
12968;SDS011;6549;53.128;8.182;2022-10-16T06:24:18;13.88;;;8.35;;
12968;SDS011;6549;53.128;8.182;2022-10-16T06:27:19;12.82;;;8.25;;
12968;SDS011;6549;53.128;8.182;2022-10-16T06:30:19;12.57;;;7.72;;
12968;SDS011;6549;53.128;8.182;2022-10-16T06:33:19;15.77;;;7.63;;
12968;SDS011;6549;53.128;8.182;2022-10-16T06:36:19;12.35;;;7.65;;
12968;SDS011;6549;53.128;8.182;2022-10-16T06:39:20;10.13;;;6.90;;
12968;SDS011;6549;53.128;8.182;2022-10-16T06:42:21;11.82;;;7.13;;
12968;SDS011;6549;53.128;8.182;2022-10-16T06:45:21;12.02;;;6.70;;
12968;SDS011;6549;53.128;8.182;2022-10-16T06:48:22;8.95;;;6.60;;
12968;SDS011;6549;53.128;8.182;2022-10-16T06:51:24;10.88;;;6.75;;
12968;SDS011;6549;53.128;8.182;2022-10-16T06:54:25;9.88;;;6.85;;
12968;SDS011;6549;53.128;8.182;2022-10-16T06:57:25;8.93;;;6.03;;
12968;SDS011;6549;53.128;8.182;2022-10-16T07:00:26;9.13;;;6.30;;
12968;SDS011;6549;53.128;8.182;2022-10-16T07:03:26;9.07;;;6.15;;
12968;SDS011;6549;53.128;8.182;2022-10-16T07:06:26;9.23;;;5.45;;
12968;SDS011;6549;53.128;8.182;2022-10-16T07:09:30;10.23;;;6.45;;
12968;SDS011;6549;53.128;8.182;2022-10-16T07:12:31;9.82;;;5.88;;
12968;SDS011;6549;53.128;8.182;2022-10-16T07:15:31;9.65;;;5.82;;
12968;SDS011;6549;53.128;8.182;2022-10-16T07:18:32;8.45;;;5.70;;
12968;SDS011;6549;53.128;8.182;2022-10-16T07:21:33;7.05;;;5.43;;
12968;SDS011;6549;53.128;8.182;2022-10-16T07:24:37;9.02;;;5.40;;
12968;SDS011;6549;53.128;8.182;2022-10-16T07:27:37;9.68;;;5.28;;
12968;SDS011;6549;53.128;8.182;2022-10-16T07:30:38;8.55;;;5.40;;
12968;SDS011;6549;53.128;8.182;2022-10-16T07:33:39;9.68;;;5.05;;
12968;SDS011;6549;53.128;8.182;2022-10-16T07:36:41;7.93;;;5.32;;
12968;SDS011;6549;53.128;8.182;2022-10-16T07:39:42;7.60;;;4.95;;
12968;SDS011;6549;53.128;8.182;2022-10-16T07:42:42;7.05;;;4.65;;
12968;SDS011;6549;53.128;8.182;2022-10-16T07:45:46;5.60;;;4.07;;
12968;SDS011;6549;53.128;8.182;2022-10-16T07:48:48;8.50;;;4.05;;
12968;SDS011;6549;53.128;8.182;2022-10-16T07:51:49;5.88;;;4.00;;
12968;SDS011;6549;53.128;8.182;2022-10-16T07:54:49;5.88;;;3.97;;
12968;SDS011;6549;53.128;8.182;2022-10-16T07:57:49;6.88;;;3.72;;
12968;SDS011;6549;53.128;8.182;2022-10-16T08:00:50;4.72;;;3.40;;
12968;SDS011;6549;53.128;8.182;2022-10-16T08:03:51;7.93;;;3.50;;
12968;SDS011;6549;53.128;8.182;2022-10-16T08:06:51;7.78;;;3.30;;
12968;SDS011;6549;53.128;8.182;2022-10-16T08:09:52;4.97;;;3.22;;
12968;SDS011;6549;53.128;8.182;2022-10-16T08:12:52;4.82;;;3.13;;
12968;SDS011;6549;53.128;8.182;2022-10-16T08:15:53;5.90;;;2.97;;
12968;SDS011;6549;53.128;8.182;2022-10-16T08:18:54;6.07;;;2.65;;
12968;SDS011;6549;53.128;8.182;2022-10-16T08:21:54;8.57;;;2.80;;
12968;SDS011;6549;53.128;8.182;2022-10-16T08:24:54;4.10;;;2.42;;
12968;SDS011;6549;53.128;8.182;2022-10-16T08:27:55;6.88;;;2.50;;
12968;SDS011;6549;53.128;8.182;2022-10-16T08:30:55;7.13;;;2.30;;
12968;SDS011;6549;53.128;8.182;2022-10-16T08:33:56;5.45;;;2.47;;
12968;SDS011;6549;53.128;8.182;2022-10-16T08:36:57;7.07;;;2.40;;
12968;SDS011;6549;53.128;8.182;2022-10-16T08:39:57;5.70;;;2.53;;
12968;SDS011;6549;53.128;8.182;2022-10-16T08:46:33;6.68;;;2.40;;
12968;SDS011;6549;53.128;8.182;2022-10-16T08:49:43;6.35;;;2.33;;
12968;SDS011;6549;53.128;8.182;2022-10-16T08:52:55;5.43;;;2.20;;
12968;SDS011;6549;53.128;8.182;2022-10-16T08:55:56;6.13;;;2.25;;
12968;SDS011;6549;53.128;8.182;2022-10-16T08:58:59;9.30;;;2.50;;
12968;SDS011;6549;53.128;8.182;2022-10-16T09:01:59;4.60;;;2.08;;
12968;SDS011;6549;53.128;8.182;2022-10-16T09:05:18;6.67;;;2.20;;
12968;SDS011;6549;53.128;8.182;2022-10-16T09:09:26;3.45;;;2.30;;
12968;SDS011;6549;53.128;8.182;2022-10-16T09:12:23;6.35;;;2.63;;
12968;SDS011;6549;53.128;8.182;2022-10-16T09:18:48;5.53;;;2.30;;
12968;SDS011;6549;53.128;8.182;2022-10-16T09:21:51;5.43;;;2.22;;
12968;SDS011;6549;53.128;8.182;2022-10-16T09:24:53;7.13;;;2.40;;
12968;SDS011;6549;53.128;8.182;2022-10-16T09:27:59;4.63;;;2.20;;
12968;SDS011;6549;53.128;8.182;2022-10-16T09:30:59;3.83;;;1.70;;
12968;SDS011;6549;53.128;8.182;2022-10-16T09:34:00;3.88;;;1.98;;
12968;SDS011;6549;53.128;8.182;2022-10-16T09:37:09;2.55;;;1.75;;
12968;SDS011;6549;53.128;8.182;2022-10-16T09:40:13;5.57;;;1.70;;
12968;SDS011;6549;53.128;8.182;2022-10-16T09:43:46;4.57;;;1.60;;
12968;SDS011;6549;53.128;8.182;2022-10-16T09:50:25;5.40;;;1.70;;
12968;SDS011;6549;53.128;8.182;2022-10-16T09:53:38;4.20;;;1.60;;
12968;SDS011;6549;53.128;8.182;2022-10-16T09:56:40;5.85;;;1.63;;
12968;SDS011;6549;53.128;8.182;2022-10-16T09:59:49;6.45;;;2.03;;
12968;SDS011;6549;53.128;8.182;2022-10-16T10:02:51;6.22;;;1.67;;
12968;SDS011;6549;53.128;8.182;2022-10-16T10:09:02;6.03;;;1.40;;
12968;SDS011;6549;53.128;8.182;2022-10-16T10:12:05;5.68;;;1.70;;
12968;SDS011;6549;53.128;8.182;2022-10-16T10:15:17;3.45;;;1.42;;
12968;SDS011;6549;53.128;8.182;2022-10-16T10:18:22;4.10;;;1.40;;
12968;SDS011;6549;53.128;8.182;2022-10-16T10:21:23;5.25;;;1.33;;
12968;SDS011;6549;53.128;8.182;2022-10-16T10:24:24;4.20;;;1.20;;
12968;SDS011;6549;53.128;8.182;2022-10-16T10:34:20;4.15;;;1.25;;
12968;SDS011;6549;53.128;8.182;2022-10-16T10:51:05;5.28;;;1.25;;
12968;SDS011;6549;53.128;8.182;2022-10-16T10:54:17;6.05;;;1.58;;
12968;SDS011;6549;53.128;8.182;2022-10-16T10:57:32;4.30;;;1.55;;
12968;SDS011;6549;53.128;8.182;2022-10-16T11:07:34;4.65;;;1.40;;
12968;SDS011;6549;53.128;8.182;2022-10-16T11:10:42;5.07;;;1.40;;
12968;SDS011;6549;53.128;8.182;2022-10-16T11:14:01;6.95;;;1.52;;
12968;SDS011;6549;53.128;8.182;2022-10-16T11:17:12;3.20;;;1.30;;
12968;SDS011;6549;53.128;8.182;2022-10-16T11:20:27;9.10;;;1.67;;
12968;SDS011;6549;53.128;8.182;2022-10-16T11:23:37;5.90;;;1.20;;
12968;SDS011;6549;53.128;8.182;2022-10-16T11:26:42;5.15;;;1.30;;
12968;SDS011;6549;53.128;8.182;2022-10-16T11:29:49;4.57;;;1.10;;
12968;SDS011;6549;53.128;8.182;2022-10-16T11:39:30;4.82;;;1.52;;
12968;SDS011;6549;53.128;8.182;2022-10-16T11:42:33;5.78;;;1.40;;
12968;SDS011;6549;53.128;8.182;2022-10-16T11:45:41;4.55;;;1.40;;
12968;SDS011;6549;53.128;8.182;2022-10-16T11:48:59;5.78;;;1.52;;
12968;SDS011;6549;53.128;8.182;2022-10-16T11:52:12;7.25;;;1.63;;
12968;SDS011;6549;53.128;8.182;2022-10-16T11:55:35;6.10;;;1.40;;
12968;SDS011;6549;53.128;8.182;2022-10-16T11:58:46;7.45;;;1.40;;
12968;SDS011;6549;53.128;8.182;2022-10-16T12:15:36;7.90;;;1.70;;
12968;SDS011;6549;53.128;8.182;2022-10-16T12:18:36;7.75;;;1.30;;
12968;SDS011;6549;53.128;8.182;2022-10-16T12:21:36;9.65;;;1.23;;
12968;SDS011;6549;53.128;8.182;2022-10-16T12:24:42;7.63;;;1.67;;
12968;SDS011;6549;53.128;8.182;2022-10-16T12:27:43;4.60;;;1.30;;
12968;SDS011;6549;53.128;8.182;2022-10-16T12:30:43;5.25;;;1.40;;
12968;SDS011;6549;53.128;8.182;2022-10-16T12:34:01;6.63;;;1.40;;
12968;SDS011;6549;53.128;8.182;2022-10-16T12:40:13;4.78;;;1.50;;
12968;SDS011;6549;53.128;8.182;2022-10-16T12:43:25;10.07;;;1.40;;
12968;SDS011;6549;53.128;8.182;2022-10-16T12:49:31;5.88;;;1.45;;
12968;SDS011;6549;53.128;8.182;2022-10-16T12:52:37;8.52;;;1.70;;
12968;SDS011;6549;53.128;8.182;2022-10-16T12:56:22;6.05;;;1.40;;
12968;SDS011;6549;53.128;8.182;2022-10-16T13:06:14;6.80;;;1.50;;
12968;SDS011;6549;53.128;8.182;2022-10-16T13:20:12;5.63;;;1.40;;
12968;SDS011;6549;53.128;8.182;2022-10-16T13:23:20;9.15;;;2.10;;
12968;SDS011;6549;53.128;8.182;2022-10-16T13:29:53;4.22;;;1.42;;
12968;SDS011;6549;53.128;8.182;2022-10-16T13:33:01;7.53;;;1.55;;
12968;SDS011;6549;53.128;8.182;2022-10-16T13:36:05;5.05;;;1.40;;
12968;SDS011;6549;53.128;8.182;2022-10-16T13:39:25;4.85;;;1.40;;
12968;SDS011;6549;53.128;8.182;2022-10-16T13:42:29;7.22;;;1.67;;
12968;SDS011;6549;53.128;8.182;2022-10-16T13:45:30;7.85;;;1.50;;
12968;SDS011;6549;53.128;8.182;2022-10-16T13:48:31;7.03;;;1.73;;
12968;SDS011;6549;53.128;8.182;2022-10-16T13:54:33;7.43;;;1.47;;
12968;SDS011;6549;53.128;8.182;2022-10-16T13:57:33;7.75;;;2.03;;
12968;SDS011;6549;53.128;8.182;2022-10-16T14:00:34;6.50;;;1.63;;
12968;SDS011;6549;53.128;8.182;2022-10-16T14:03:35;7.35;;;1.85;;
12968;SDS011;6549;53.128;8.182;2022-10-16T14:06:36;8.45;;;1.75;;
12968;SDS011;6549;53.128;8.182;2022-10-16T14:09:40;5.40;;;1.70;;
12968;SDS011;6549;53.128;8.182;2022-10-16T14:12:41;4.10;;;1.30;;
12968;SDS011;6549;53.128;8.182;2022-10-16T14:15:45;4.95;;;1.33;;
12968;SDS011;6549;53.128;8.182;2022-10-16T14:18:53;6.55;;;1.55;;
12968;SDS011;6549;53.128;8.182;2022-10-16T14:21:55;7.72;;;1.42;;
12968;SDS011;6549;53.128;8.182;2022-10-16T14:24:56;6.32;;;1.35;;
12968;SDS011;6549;53.128;8.182;2022-10-16T14:27:57;7.78;;;1.52;;
12968;SDS011;6549;53.128;8.182;2022-10-16T14:31:00;7.53;;;1.70;;
12968;SDS011;6549;53.128;8.182;2022-10-16T14:34:02;5.95;;;1.42;;
12968;SDS011;6549;53.128;8.182;2022-10-16T14:37:23;5.25;;;1.50;;
12968;SDS011;6549;53.128;8.182;2022-10-16T14:40:28;6.55;;;1.67;;
12968;SDS011;6549;53.128;8.182;2022-10-16T14:46:42;5.88;;;1.52;;
12968;SDS011;6549;53.128;8.182;2022-10-16T14:49:44;5.75;;;1.75;;
12968;SDS011;6549;53.128;8.182;2022-10-16T14:52:44;5.78;;;1.40;;
12968;SDS011;6549;53.128;8.182;2022-10-16T14:55:45;7.07;;;1.70;;
12968;SDS011;6549;53.128;8.182;2022-10-16T14:58:45;4.47;;;1.30;;
12968;SDS011;6549;53.128;8.182;2022-10-16T15:01:46;6.80;;;1.60;;
12968;SDS011;6549;53.128;8.182;2022-10-16T15:04:46;4.88;;;1.65;;
12968;SDS011;6549;53.128;8.182;2022-10-16T15:07:48;6.88;;;1.73;;
12968;SDS011;6549;53.128;8.182;2022-10-16T15:10:53;5.47;;;1.70;;
12968;SDS011;6549;53.128;8.182;2022-10-16T15:13:53;5.35;;;1.42;;
12968;SDS011;6549;53.128;8.182;2022-10-16T15:16:54;8.05;;;1.80;;
12968;SDS011;6549;53.128;8.182;2022-10-16T15:19:54;6.68;;;1.83;;
12968;SDS011;6549;53.128;8.182;2022-10-16T15:22:54;5.72;;;1.50;;
12968;SDS011;6549;53.128;8.182;2022-10-16T15:25:55;5.82;;;1.77;;
12968;SDS011;6549;53.128;8.182;2022-10-16T15:28:56;7.03;;;1.45;;
12968;SDS011;6549;53.128;8.182;2022-10-16T15:31:57;6.38;;;1.75;;
12968;SDS011;6549;53.128;8.182;2022-10-16T15:34:57;6.07;;;2.00;;
12968;SDS011;6549;53.128;8.182;2022-10-16T15:37:58;5.72;;;1.98;;
12968;SDS011;6549;53.128;8.182;2022-10-16T15:40:58;8.90;;;1.50;;
12968;SDS011;6549;53.128;8.182;2022-10-16T15:43:58;5.38;;;1.45;;
12968;SDS011;6549;53.128;8.182;2022-10-16T15:46:59;5.15;;;1.50;;
12968;SDS011;6549;53.128;8.182;2022-10-16T15:50:01;5.57;;;1.30;;
12968;SDS011;6549;53.128;8.182;2022-10-16T15:53:04;3.28;;;1.30;;
12968;SDS011;6549;53.128;8.182;2022-10-16T15:56:05;4.10;;;1.40;;
12968;SDS011;6549;53.128;8.182;2022-10-16T15:59:06;4.30;;;1.27;;
12968;SDS011;6549;53.128;8.182;2022-10-16T16:02:08;4.30;;;1.50;;
12968;SDS011;6549;53.128;8.182;2022-10-16T16:05:09;3.15;;;1.13;;
12968;SDS011;6549;53.128;8.182;2022-10-16T16:08:10;5.63;;;1.63;;
12968;SDS011;6549;53.128;8.182;2022-10-16T16:11:11;5.13;;;1.50;;
12968;SDS011;6549;53.128;8.182;2022-10-16T16:14:13;2.97;;;1.35;;
12968;SDS011;6549;53.128;8.182;2022-10-16T16:17:14;3.30;;;1.30;;
12968;SDS011;6549;53.128;8.182;2022-10-16T16:20:15;2.88;;;1.20;;
12968;SDS011;6549;53.128;8.182;2022-10-16T16:23:15;3.42;;;1.23;;
12968;SDS011;6549;53.128;8.182;2022-10-16T16:26:23;4.88;;;1.70;;
12968;SDS011;6549;53.128;8.182;2022-10-16T16:29:25;4.85;;;1.92;;
12968;SDS011;6549;53.128;8.182;2022-10-16T16:32:26;4.13;;;1.80;;
12968;SDS011;6549;53.128;8.182;2022-10-16T16:35:26;3.90;;;1.63;;
12968;SDS011;6549;53.128;8.182;2022-10-16T16:38:27;4.30;;;1.80;;
12968;SDS011;6549;53.128;8.182;2022-10-16T16:41:28;9.07;;;2.67;;
12968;SDS011;6549;53.128;8.182;2022-10-16T16:44:30;9.67;;;3.00;;
12968;SDS011;6549;53.128;8.182;2022-10-16T16:47:30;7.25;;;2.72;;
12968;SDS011;6549;53.128;8.182;2022-10-16T16:50:34;5.28;;;2.33;;
12968;SDS011;6549;53.128;8.182;2022-10-16T16:53:35;4.40;;;2.40;;
12968;SDS011;6549;53.128;8.182;2022-10-16T16:56:36;6.72;;;2.45;;
12968;SDS011;6549;53.128;8.182;2022-10-16T16:59:36;5.88;;;2.67;;
12968;SDS011;6549;53.128;8.182;2022-10-16T17:02:37;5.07;;;2.50;;
12968;SDS011;6549;53.128;8.182;2022-10-16T17:05:42;5.88;;;2.40;;
12968;SDS011;6549;53.128;8.182;2022-10-16T17:08:43;5.22;;;2.45;;
12968;SDS011;6549;53.128;8.182;2022-10-16T17:11:43;6.20;;;2.63;;
12968;SDS011;6549;53.128;8.182;2022-10-16T17:14:44;5.45;;;2.60;;
12968;SDS011;6549;53.128;8.182;2022-10-16T17:17:44;5.85;;;2.35;;
12968;SDS011;6549;53.128;8.182;2022-10-16T17:20:45;7.53;;;2.70;;
12968;SDS011;6549;53.128;8.182;2022-10-16T17:23:45;4.18;;;2.20;;
12968;SDS011;6549;53.128;8.182;2022-10-16T17:26:46;5.68;;;2.35;;
12968;SDS011;6549;53.128;8.182;2022-10-16T17:29:51;5.35;;;2.53;;
12968;SDS011;6549;53.128;8.182;2022-10-16T17:32:51;3.70;;;2.20;;
12968;SDS011;6549;53.128;8.182;2022-10-16T17:35:52;5.00;;;2.47;;
12968;SDS011;6549;53.128;8.182;2022-10-16T17:38:52;6.82;;;3.13;;
12968;SDS011;6549;53.128;8.182;2022-10-16T17:41:52;6.75;;;3.35;;
12968;SDS011;6549;53.128;8.182;2022-10-16T17:44:53;5.65;;;2.95;;
12968;SDS011;6549;53.128;8.182;2022-10-16T17:47:53;6.57;;;3.10;;
12968;SDS011;6549;53.128;8.182;2022-10-16T17:50:53;5.88;;;3.08;;
12968;SDS011;6549;53.128;8.182;2022-10-16T17:53:54;6.38;;;3.22;;
12968;SDS011;6549;53.128;8.182;2022-10-16T17:56:56;8.05;;;3.38;;
12968;SDS011;6549;53.128;8.182;2022-10-16T17:59:56;6.60;;;3.05;;
12968;SDS011;6549;53.128;8.182;2022-10-16T18:02:57;7.13;;;3.28;;
12968;SDS011;6549;53.128;8.182;2022-10-16T18:05:57;5.68;;;3.13;;
12968;SDS011;6549;53.128;8.182;2022-10-16T18:09:00;6.25;;;3.83;;
12968;SDS011;6549;53.128;8.182;2022-10-16T18:12:02;7.47;;;3.27;;
12968;SDS011;6549;53.128;8.182;2022-10-16T18:15:02;5.78;;;3.10;;
12968;SDS011;6549;53.128;8.182;2022-10-16T18:18:04;5.97;;;3.00;;
12968;SDS011;6549;53.128;8.182;2022-10-16T18:21:06;6.63;;;3.53;;
12968;SDS011;6549;53.128;8.182;2022-10-16T18:24:08;6.05;;;3.60;;
12968;SDS011;6549;53.128;8.182;2022-10-16T18:27:08;5.78;;;3.17;;
12968;SDS011;6549;53.128;8.182;2022-10-16T18:30:09;6.38;;;3.30;;
12968;SDS011;6549;53.128;8.182;2022-10-16T18:33:09;5.53;;;3.45;;
12968;SDS011;6549;53.128;8.182;2022-10-16T18:36:10;5.28;;;3.35;;
12968;SDS011;6549;53.128;8.182;2022-10-16T18:39:11;6.05;;;3.97;;
12968;SDS011;6549;53.128;8.182;2022-10-16T18:42:12;5.35;;;3.70;;
12968;SDS011;6549;53.128;8.182;2022-10-16T18:45:12;5.53;;;3.08;;
12968;SDS011;6549;53.128;8.182;2022-10-16T18:48:12;6.65;;;3.95;;
12968;SDS011;6549;53.128;8.182;2022-10-16T18:51:17;6.82;;;4.03;;
12968;SDS011;6549;53.128;8.182;2022-10-16T18:54:19;7.57;;;3.97;;
12968;SDS011;6549;53.128;8.182;2022-10-16T18:57:19;5.63;;;3.70;;
12968;SDS011;6549;53.128;8.182;2022-10-16T19:00:20;7.25;;;3.95;;
12968;SDS011;6549;53.128;8.182;2022-10-16T19:03:20;7.70;;;3.78;;
12968;SDS011;6549;53.128;8.182;2022-10-16T19:06:21;6.38;;;3.80;;
12968;SDS011;6549;53.128;8.182;2022-10-16T19:09:22;7.38;;;4.65;;
12968;SDS011;6549;53.128;8.182;2022-10-16T19:12:24;7.13;;;5.38;;
12968;SDS011;6549;53.128;8.182;2022-10-16T19:15:25;8.60;;;5.18;;
12968;SDS011;6549;53.128;8.182;2022-10-16T19:18:26;7.82;;;5.43;;
12968;SDS011;6549;53.128;8.182;2022-10-16T19:21:27;8.40;;;5.18;;
12968;SDS011;6549;53.128;8.182;2022-10-16T19:24:28;8.43;;;5.40;;
12968;SDS011;6549;53.128;8.182;2022-10-16T19:27:29;10.82;;;6.68;;
12968;SDS011;6549;53.128;8.182;2022-10-16T19:30:29;9.50;;;5.90;;
12968;SDS011;6549;53.128;8.182;2022-10-16T19:33:29;9.73;;;6.07;;
12968;SDS011;6549;53.128;8.182;2022-10-16T19:36:34;9.25;;;6.18;;
12968;SDS011;6549;53.128;8.182;2022-10-16T19:39:36;7.57;;;5.35;;
12968;SDS011;6549;53.128;8.182;2022-10-16T19:42:36;7.50;;;5.13;;
12968;SDS011;6549;53.128;8.182;2022-10-16T19:45:42;9.27;;;5.65;;
12968;SDS011;6549;53.128;8.182;2022-10-16T19:48:42;10.02;;;6.35;;
12968;SDS011;6549;53.128;8.182;2022-10-16T19:51:47;9.10;;;6.05;;
12968;SDS011;6549;53.128;8.182;2022-10-16T19:54:49;11.02;;;6.78;;
12968;SDS011;6549;53.128;8.182;2022-10-16T19:57:49;11.45;;;7.15;;
12968;SDS011;6549;53.128;8.182;2022-10-16T20:00:49;10.30;;;7.05;;
12968;SDS011;6549;53.128;8.182;2022-10-16T20:03:50;9.05;;;6.03;;
12968;SDS011;6549;53.128;8.182;2022-10-16T20:06:50;9.13;;;5.95;;
12968;SDS011;6549;53.128;8.182;2022-10-16T20:09:51;9.43;;;5.78;;
12968;SDS011;6549;53.128;8.182;2022-10-16T20:12:51;9.88;;;6.38;;
12968;SDS011;6549;53.128;8.182;2022-10-16T20:15:52;10.63;;;5.97;;
12968;SDS011;6549;53.128;8.182;2022-10-16T20:18:52;9.77;;;6.07;;
12968;SDS011;6549;53.128;8.182;2022-10-16T20:21:53;10.82;;;6.25;;
12968;SDS011;6549;53.128;8.182;2022-10-16T20:24:53;11.25;;;6.82;;
12968;SDS011;6549;53.128;8.182;2022-10-16T20:27:53;8.75;;;6.78;;
12968;SDS011;6549;53.128;8.182;2022-10-16T20:30:54;10.18;;;6.95;;